Time;durP1;ratioP1;P1;durP2;ratioP2;P2;SDS_P1;SDS_P2;PMS_P1;PMS_P2;Temp;Humidity;BMP_temperature;BMP_pressure;BME280_temperature;BME280_humidity;BME280_pressure;Samples;Min_cycle;Max_cycle;Signal;HPM_P1;HPM_P2
2022/09/06 00:01:17;;;;;;;6.50;4.30;;;20.20;99.90;;;;;;5113281;28;20041;-62
2022/09/06 00:03:43;;;;;;;6.43;4.43;;;20.20;99.90;;;;;;5095442;28;20119;-62
2022/09/06 00:06:14;;;;;;;6.57;4.45;;;20.10;99.90;;;;;;5112477;28;20036;-62
2022/09/06 00:08:41;;;;;;;7.63;5.20;;;20.10;99.90;;;;;;5113879;28;20059;-62
2022/09/06 00:11:07;;;;;;;9.10;4.95;;;20.00;99.90;;;;;;5113122;28;20035;-62
2022/09/06 00:13:34;;;;;;;8.35;5.00;;;20.00;99.90;;;;;;5094888;28;20548;-62
2022/09/06 00:16:08;;;;;;;10.98;5.57;;;20.00;99.90;;;;;;5095621;28;20043;-63
2022/09/06 00:18:34;;;;;;;;;;;19.90;99.90;;;;;;5095543;28;20059;-62
2022/09/06 00:21:00;;;;;;;6.30;4.18;;;19.90;99.90;;;;;;5112937;28;20299;-62
2022/09/06 00:23:25;;;;;;;6.95;4.57;;;19.90;99.90;;;;;;5112913;28;20421;-62
2022/09/06 00:25:51;;;;;;;8.00;4.20;;;19.90;99.90;;;;;;5113486;28;20604;-62
2022/09/06 00:28:17;;;;;;;9.52;4.90;;;19.90;99.90;;;;;;5094048;28;20415;-62
2022/09/06 00:30:43;;;;;;;6.38;4.90;;;20.00;99.90;;;;;;5078309;28;20133;-62
2022/09/06 00:33:08;;;;;;;8.50;4.90;;;20.00;99.90;;;;;;5094330;28;20131;-62
2022/09/06 00:35:34;;;;;;;8.27;5.47;;;20.00;99.90;;;;;;5094468;28;20042;-62
2022/09/06 00:38:00;;;;;;;7.35;5.55;;;20.00;99.90;;;;;;5113196;28;20503;-63
2022/09/06 00:40:28;;;;;;;8.93;5.25;;;19.90;99.90;;;;;;5111940;28;20104;-62
2022/09/06 00:42:55;;;;;;;6.93;4.70;;;19.90;99.90;;;;;;5112673;28;20051;-62
2022/09/06 00:45:22;;;;;;;8.43;4.88;;;19.90;99.90;;;;;;5094309;28;20510;-62
2022/09/06 00:47:48;;;;;;;8.55;5.30;;;19.80;99.90;;;;;;5093949;28;20035;-62
2022/09/06 00:50:16;;;;;;;10.07;4.97;;;19.80;99.90;;;;;;5094350;28;20445;-62
2022/09/06 00:52:44;;;;;;;10.30;6.22;;;19.80;99.90;;;;;;5094730;28;20522;-63
2022/09/06 00:55:10;;;;;;;8.25;6.13;;;19.80;99.90;;;;;;5093609;28;20142;-62
2022/09/06 00:57:36;;;;;;;9.38;5.10;;;19.70;99.90;;;;;;5112858;28;20039;-62
2022/09/06 01:00:05;;;;;;;8.60;5.15;;;19.70;99.90;;;;;;5112851;28;20035;-62
2022/09/06 01:02:31;;;;;;;7.60;5.00;;;19.70;99.90;;;;;;5112303;28;20123;-63
2022/09/06 01:04:56;;;;;;;8.52;4.55;;;19.60;99.90;;;;;;5094810;28;20078;-62
2022/09/06 01:07:45;;;;;;;7.93;5.60;;;19.60;99.90;;;;;;5112312;28;20550;-62
2022/09/06 01:10:26;;;;;;;8.13;5.82;;;19.60;99.90;;;;;;5093533;28;20487;-63
2022/09/06 01:13:12;;;;;;;9.25;5.18;;;19.60;99.90;;;;;;5094899;28;20043;-62
2022/09/06 01:15:59;;;;;;;7.85;5.07;;;19.60;99.90;;;;;;5112031;28;20044;-62
2022/09/06 01:18:40;;;;;;;8.85;5.40;;;19.60;99.90;;;;;;5093717;28;20058;-62
2022/09/06 01:21:26;;;;;;;8.80;5.47;;;19.60;99.90;;;;;;5093774;28;20499;-63
2022/09/06 01:24:17;;;;;;;7.75;5.75;;;19.50;99.90;;;;;;5093753;28;20052;-62
2022/09/06 01:27:02;;;;;;;10.35;6.07;;;19.50;99.90;;;;;;5112604;28;20035;-62
2022/09/06 01:29:46;;;;;;;8.70;5.80;;;19.50;99.90;;;;;;5112568;28;20541;-62
2022/09/06 01:32:46;;;;;;;10.40;5.80;;;19.50;99.90;;;;;;5112091;28;20146;-62
2022/09/06 01:35:39;;;;;;;11.88;5.70;;;19.50;99.90;;;;;;5093401;28;20188;-63
2022/09/06 01:38:05;;;;;;;7.80;5.00;;;19.40;99.90;;;;;;5093338;28;20176;-62
2022/09/06 01:40:35;;;;;;;7.45;5.10;;;19.40;99.90;;;;;;5112626;28;20044;-62
2022/09/06 01:43:06;;;;;;;9.25;4.95;;;19.40;99.90;;;;;;5112291;28;20039;-62
2022/09/06 01:46:06;;;;;;;9.00;5.10;;;19.40;99.90;;;;;;5111483;28;20525;-62
2022/09/06 01:49:06;;;;;;;7.00;5.38;;;19.40;99.90;;;;;;5094280;28;20043;-62
2022/09/06 01:52:01;;;;;;;10.13;6.43;;;19.30;99.90;;;;;;5093653;28;20036;-62
2022/09/06 01:54:51;;;;;;;7.65;6.32;;;19.30;99.90;;;;;;5112304;28;20046;-62
2022/09/06 01:57:41;;;;;;;9.18;4.72;;;19.30;99.90;;;;;;5098116;28;20083;-62
2022/09/06 02:00:10;;;;;;;8.65;5.18;;;19.30;99.90;;;;;;5097521;28;20494;-62
2022/09/06 02:03:05;;;;;;;7.50;4.75;;;19.30;99.90;;;;;;5097819;28;20047;-62
2022/09/06 02:05:34;;;;;;;6.90;4.32;;;19.20;99.90;;;;;;5075563;28;20077;-62
2022/09/06 02:08:06;;;;;;;5.82;4.38;;;19.20;99.90;;;;;;5097859;28;20484;-62
2022/09/06 02:10:57;;;;;;;11.77;5.20;;;19.20;99.90;;;;;;5097865;28;20051;-62
2022/09/06 02:13:25;;;;;;;8.27;5.68;;;19.20;99.90;;;;;;5114729;28;20040;-61
2022/09/06 02:16:00;;;;;;;10.32;4.90;;;19.20;99.90;;;;;;5116013;28;20067;-62
2022/09/06 02:18:51;;;;;;;9.85;5.45;;;19.20;99.90;;;;;;5080067;28;20056;-62
2022/09/06 02:21:21;;;;;;;7.43;5.53;;;19.20;99.90;;;;;;5097078;28;20048;-62
2022/09/06 02:23:48;;;;;;;10.38;5.93;;;19.20;99.90;;;;;;5115779;28;20488;-62
2022/09/06 02:26:20;;;;;;;11.93;6.45;;;19.20;99.90;;;;;;5114551;28;20085;-62
2022/09/06 02:28:46;;;;;;;9.05;5.75;;;19.20;99.90;;;;;;5080306;28;20071;-62
2022/09/06 02:31:19;;;;;;;9.93;6.07;;;19.10;99.90;;;;;;5097034;28;20509;-62
2022/09/06 02:33:46;;;;;;;10.30;5.38;;;19.10;99.90;;;;;;5096910;28;20051;-62
2022/09/06 02:36:14;;;;;;;11.35;5.97;;;19.10;99.90;;;;;;5096916;28;20126;-62
2022/09/06 02:38:40;;;;;;;7.00;5.18;;;19.10;99.90;;;;;;5097242;28;20051;-62
2022/09/06 02:41:08;;;;;;;11.93;5.53;;;19.10;99.90;;;;;;5114104;28;20092;-62
2022/09/06 02:43:34;;;;;;;9.43;5.72;;;19.10;99.90;;;;;;5097145;28;20043;-62
2022/09/06 02:46:00;;;;;;;9.52;5.93;;;19.10;99.90;;;;;;5097096;28;20062;-62
2022/09/06 02:48:26;;;;;;;7.80;5.75;;;19.10;99.90;;;;;;5079035;28;20483;-62
2022/09/06 02:50:52;;;;;;;7.20;4.70;;;19.00;99.90;;;;;;5115214;28;20035;-62
2022/09/06 02:53:18;;;;;;;7.05;4.75;;;19.00;99.90;;;;;;5114728;28;20039;-62
2022/09/06 02:55:47;;;;;;;5.90;4.38;;;19.00;99.90;;;;;;5114710;28;20040;-62
2022/09/06 02:58:14;;;;;;;7.95;4.70;;;19.00;99.90;;;;;;5096282;28;20055;-62
2022/09/06 03:00:39;;;;;;;7.45;5.28;;;18.90;99.90;;;;;;5096690;28;20514;-62
2022/09/06 03:03:06;;;;;;;10.73;6.10;;;18.90;99.90;;;;;;5113753;28;20043;-62
2022/09/06 03:05:32;;;;;;;8.02;5.55;;;18.90;99.90;;;;;;5096568;28;20047;-62
2022/09/06 03:07:57;;;;;;;8.50;6.15;;;18.90;99.90;;;;;;5079802;28;20071;-62
2022/09/06 03:10:26;;;;;;;10.30;6.25;;;18.80;99.90;;;;;;5095940;28;20443;-62
2022/09/06 03:12:52;;;;;;;7.38;4.90;;;18.80;99.90;;;;;;5114755;28;20044;-62
2022/09/06 03:15:18;;;;;;;8.75;5.50;;;18.80;99.90;;;;;;5095515;28;20039;-62
2022/09/06 03:17:44;;;;;;;10.57;4.88;;;18.70;99.90;;;;;;5096423;28;20046;-62
2022/09/06 03:20:11;;;;;;;11.07;6.50;;;18.70;99.90;;;;;;5096082;28;20059;-62
2022/09/06 03:22:38;;;;;;;9.43;5.47;;;18.70;99.90;;;;;;5096099;28;20051;-62
2022/09/06 03:25:05;;;;;;;11.15;6.18;;;18.70;99.90;;;;;;5096045;28;20046;-62
2022/09/06 03:27:30;;;;;;;10.40;6.07;;;18.60;99.90;;;;;;5114449;28;20070;-62
2022/09/06 03:29:56;;;;;;;7.47;5.50;;;18.60;99.90;;;;;;5113927;28;20035;-62
2022/09/06 03:32:22;;;;;;;11.90;6.40;;;18.60;99.90;;;;;;5095859;28;20047;-62
2022/09/06 03:34:47;;;;;;;8.57;5.72;;;18.60;99.90;;;;;;5096225;28;20042;-62
2022/09/06 03:37:13;;;;;;;7.20;5.57;;;18.50;99.90;;;;;;5094932;28;20043;-62
2022/09/06 03:39:38;;;;;;;9.90;5.75;;;18.50;99.90;;;;;;5114418;28;20036;-62
2022/09/06 03:42:09;;;;;;;12.25;5.05;;;18.50;99.90;;;;;;5095545;28;20050;-62
2022/09/06 03:44:35;;;;;;;15.00;5.20;;;18.50;99.90;;;;;;5095478;28;20085;-62
2022/09/06 03:47:01;;;;;;;10.15;5.68;;;18.50;99.90;;;;;;5079150;28;20039;-62
2022/09/06 03:49:26;;;;;;;7.50;5.00;;;18.50;99.90;;;;;;5113757;28;20036;-62
2022/09/06 03:51:52;;;;;;;6.60;5.00;;;18.40;99.90;;;;;;5095065;28;20043;-62
2022/09/06 03:54:17;;;;;;;10.48;6.60;;;18.40;99.90;;;;;;5113499;28;20031;-62
2022/09/06 03:56:43;;;;;;;9.07;6.05;;;18.40;99.90;;;;;;5113718;28;20039;-62
2022/09/06 03:59:09;;;;;;;9.77;5.95;;;18.40;99.90;;;;;;5094448;28;20084;-62
2022/09/06 04:01:34;;;;;;;8.35;6.25;;;18.40;99.90;;;;;;5095811;28;20040;-62
2022/09/06 04:04:00;;;;;;;13.85;6.13;;;18.40;99.90;;;;;;5113922;28;20115;-62
2022/09/06 04:06:26;;;;;;;8.15;5.07;;;18.30;99.90;;;;;;5094193;28;20140;-62
2022/09/06 04:08:52;;;;;;;9.60;5.90;;;18.40;99.90;;;;;;5078921;28;20119;-62
2022/09/06 04:11:18;;;;;;;9.10;6.50;;;18.40;99.90;;;;;;5093908;28;20150;-62
2022/09/06 04:13:44;;;;;;;10.23;5.75;;;18.30;99.90;;;;;;5113942;28;20403;-62
2022/09/06 04:16:09;;;;;;;8.10;5.35;;;18.30;99.90;;;;;;5094847;28;20102;-62
2022/09/06 04:18:35;;;;;;;8.70;5.35;;;18.30;99.90;;;;;;5073706;28;20056;-62
2022/09/06 04:21:01;;;;;;;9.25;5.65;;;18.30;99.90;;;;;;5092381;28;20052;-64
2022/09/06 04:23:28;;;;;;;8.57;4.53;;;18.30;99.90;;;;;;5091677;28;20499;-64
2022/09/06 04:25:55;;;;;;;8.75;4.93;;;18.40;99.90;;;;;;5091030;28;20044;-65
2022/09/06 04:28:22;;;;;;;7.20;5.50;;;18.40;99.90;;;;;;5092773;28;20072;-64
2022/09/06 04:31:06;;;;;;;10.15;5.93;;;18.40;99.90;;;;;;5091875;28;20563;-65
2022/09/06 04:33:33;;;;;;;7.85;4.78;;;18.40;99.90;;;;;;5092321;28;20123;-65
2022/09/06 04:36:01;;;;;;;7.85;5.25;;;18.30;99.90;;;;;;5092945;28;20036;-65
2022/09/06 04:38:29;;;;;;;8.55;5.70;;;18.30;99.90;;;;;;5091239;28;20039;-65
2022/09/06 04:40:54;;;;;;;11.23;6.82;;;18.30;99.90;;;;;;5091118;28;20554;-64
2022/09/06 04:43:21;;;;;;;9.70;6.78;;;18.30;99.90;;;;;;5091109;28;20048;-64
2022/09/06 04:45:47;;;;;;;11.48;6.72;;;18.30;99.90;;;;;;5091549;28;20032;-64
2022/09/06 04:48:13;;;;;;;9.68;5.63;;;18.20;99.90;;;;;;5090363;28;20050;-64
2022/09/06 04:50:38;;;;;;;9.65;5.53;;;18.10;99.90;;;;;;5074423;28;20044;-64
2022/09/06 04:53:05;;;;;;;12.07;7.35;;;18.10;99.90;;;;;;5073951;28;20054;-64
2022/09/06 04:55:31;;;;;;;11.85;7.40;;;18.10;99.90;;;;;;5090656;28;20051;-63
2022/09/06 04:57:58;;;;;;;8.88;6.10;;;18.00;99.90;;;;;;5074638;28;20130;-63
2022/09/06 05:00:29;;;;;;;8.43;6.35;;;17.90;99.90;;;;;;5073971;28;20036;-64
2022/09/06 05:02:54;;;;;;;9.77;6.85;;;17.80;99.90;;;;;;5092047;28;20043;-64
2022/09/06 05:05:21;;;;;;;8.50;5.50;;;17.80;99.90;;;;;;5091734;28;20444;-64
2022/09/06 05:07:50;;;;;;;9.02;6.65;;;17.70;99.90;;;;;;5091564;28;20157;-64
2022/09/06 05:10:15;;;;;;;9.70;7.35;;;17.70;99.90;;;;;;5092096;28;20032;-64
2022/09/06 05:12:41;;;;;;;9.75;6.97;;;17.60;99.90;;;;;;5092607;28;20507;-64
2022/09/06 05:15:07;;;;;;;12.27;7.80;;;17.50;99.90;;;;;;5090898;28;20039;-64
2022/09/06 05:17:33;;;;;;;9.18;7.22;;;17.50;99.90;;;;;;5092510;28;20096;-63
2022/09/06 05:19:58;;;;;;;9.70;8.00;;;17.50;99.90;;;;;;5090948;28;20055;-64
2022/09/06 05:22:24;;;;;;;13.48;8.43;;;17.40;99.90;;;;;;5089955;28;20093;-64
2022/09/06 05:24:50;;;;;;;11.95;7.82;;;17.40;99.90;;;;;;5074619;28;20035;-64
2022/09/06 05:27:16;;;;;;;11.85;9.10;;;17.40;99.90;;;;;;5090409;28;20043;-64
2022/09/06 05:29:41;;;;;;;14.45;9.65;;;17.30;99.90;;;;;;5092085;28;20032;-64
2022/09/06 05:32:07;;;;;;;9.93;8.27;;;17.30;99.90;;;;;;5095112;28;20036;-64
2022/09/06 05:34:32;;;;;;;10.00;7.85;;;17.30;99.90;;;;;;5096249;28;20450;-64
2022/09/06 05:36:58;;;;;;;12.13;8.93;;;17.20;99.90;;;;;;5094304;28;20039;-64
2022/09/06 05:39:24;;;;;;;10.60;8.95;;;17.30;99.90;;;;;;5094638;28;20043;-64
2022/09/06 05:41:49;;;;;;;11.43;10.23;;;17.20;99.90;;;;;;5096301;28;20419;-64
2022/09/06 05:44:15;;;;;;;14.23;10.35;;;17.20;99.90;;;;;;5094639;28;20078;-64
2022/09/06 05:46:44;;;;;;;13.20;10.73;;;17.20;99.90;;;;;;5095044;28;20044;-64
2022/09/06 05:49:12;;;;;;;12.25;10.10;;;17.20;99.90;;;;;;5095829;28;20408;-64
2022/09/06 05:51:38;;;;;;;15.70;9.25;;;17.10;99.90;;;;;;5093984;28;20036;-64
2022/09/06 05:54:05;;;;;;;10.95;8.93;;;17.10;99.90;;;;;;5077325;28;20048;-64
2022/09/06 05:56:31;;;;;;;10.68;8.45;;;17.00;99.90;;;;;;5094974;28;20113;-63
2022/09/06 05:58:56;;;;;;;10.25;7.32;;;17.00;99.90;;;;;;5095316;28;20036;-63
2022/09/06 06:01:29;;;;;;;11.32;8.60;;;17.00;99.90;;;;;;5095313;28;20052;-64
2022/09/06 06:03:57;;;;;;;10.75;8.45;;;17.00;99.90;;;;;;5095261;28;20058;-64
2022/09/06 06:06:24;;;;;;;11.18;8.73;;;17.00;99.90;;;;;;5095260;28;20105;-64
2022/09/06 06:08:50;;;;;;;12.45;9.75;;;17.10;99.90;;;;;;5095910;28;20097;-64
2022/09/06 06:11:16;;;;;;;11.68;8.57;;;17.10;99.90;;;;;;5093229;28;20036;-64
2022/09/06 06:13:43;;;;;;;13.48;8.85;;;17.10;99.90;;;;;;5095657;28;20484;-64
2022/09/06 06:16:12;;;;;;;12.15;9.68;;;17.10;99.90;;;;;;5095007;28;20115;-64
2022/09/06 06:18:38;;;;;;;11.07;9.88;;;17.10;99.90;;;;;;5093200;28;20542;-64
2022/09/06 06:21:15;;;;;;;13.68;9.82;;;17.20;99.90;;;;;;5104781;28;20477;-64
2022/09/06 06:23:43;;;;;;;13.63;9.57;;;17.10;99.90;;;;;;5077282;28;20048;-64
2022/09/06 06:26:09;;;;;;;11.13;9.80;;;17.10;99.90;;;;;;5075203;28;20042;-64
2022/09/06 06:28:36;;;;;;;10.95;9.00;;;17.20;99.90;;;;;;5092950;28;20064;-64
2022/09/06 06:31:02;;;;;;;11.73;9.27;;;17.20;99.90;;;;;;5087617;28;20040;-64
2022/09/06 06:33:28;;;;;;;12.52;8.98;;;17.20;99.90;;;;;;5091899;28;20051;-63
2022/09/06 06:36:03;;;;;;;14.02;8.55;;;17.20;99.90;;;;;;5091623;28;20032;-64
2022/09/06 06:38:37;;;;;;;11.68;9.48;;;17.20;99.90;;;;;;5090318;28;20051;-64
2022/09/06 06:41:04;;;;;;;13.45;10.10;;;17.20;99.90;;;;;;5089549;28;20051;-64
2022/09/06 06:43:35;;;;;;;11.77;8.95;;;17.20;99.90;;;;;;5090790;28;20438;-64
2022/09/06 06:46:12;;;;;;;12.57;10.85;;;17.20;99.90;;;;;;5090180;28;20111;-64
2022/09/06 06:48:42;;;;;;;12.40;9.45;;;17.30;99.90;;;;;;5090309;28;20044;-64
2022/09/06 06:51:09;;;;;;;15.15;10.30;;;17.30;99.90;;;;;;5087476;28;20036;-64
2022/09/06 06:53:35;;;;;;;12.70;10.18;;;17.30;99.90;;;;;;5089010;28;20606;-64
2022/09/06 06:56:11;;;;;;;11.45;8.55;;;17.30;99.90;;;;;;5081840;28;20108;-64
2022/09/06 06:58:43;;;;;;;14.75;11.77;;;17.30;99.90;;;;;;5083407;28;20040;-64
2022/09/06 07:01:09;;;;;;;12.80;10.38;;;17.40;99.90;;;;;;5087120;28;20071;-63
2022/09/06 07:03:35;;;;;;;14.07;10.77;;;17.40;99.90;;;;;;5085347;28;20051;-64
2022/09/06 07:06:02;;;;;;;14.13;11.80;;;17.50;99.90;;;;;;5098686;28;20077;-64
2022/09/06 07:08:28;;;;;;;13.63;11.88;;;17.60;99.90;;;;;;5093132;28;20047;-64
2022/09/06 07:10:53;;;;;;;11.10;8.40;;;17.70;99.90;;;;;;5111130;28;20392;-64
2022/09/06 07:13:19;;;;;;;11.75;9.80;;;17.80;99.90;;;;;;5110348;28;20264;-63
2022/09/06 07:15:45;;;;;;;13.38;8.25;;;18.00;99.90;;;;;;5111330;28;20039;-64
2022/09/06 07:18:10;;;;;;;11.95;9.07;;;18.10;99.90;;;;;;5102430;28;20436;-65
2022/09/06 07:20:36;;;;;;;11.15;8.77;;;18.20;99.90;;;;;;5084693;27;20042;-65
2022/09/06 07:23:06;;;;;;;10.60;8.77;;;18.30;99.90;;;;;;5112720;27;20046;-67
2022/09/06 07:25:33;;;;;;;11.52;8.98;;;18.50;99.90;;;;;;5091910;28;20040;-65
2022/09/06 07:28:01;;;;;;;12.88;9.80;;;18.50;99.90;;;;;;5076821;28;20562;-66
2022/09/06 07:30:29;;;;;;;13.38;10.05;;;18.60;99.90;;;;;;5092447;28;20036;-64
2022/09/06 07:32:55;;;;;;;18.40;12.52;;;18.70;99.90;;;;;;5079435;28;20373;-65
2022/09/06 07:35:21;;;;;;;15.68;10.55;;;18.80;99.90;;;;;;5102528;28;20062;-64
2022/09/06 07:37:54;;;;;;;14.40;10.05;;;18.90;99.90;;;;;;5108420;27;20044;-66
2022/09/06 07:40:20;;;;;;;15.05;9.82;;;19.00;99.90;;;;;;5092171;28;20059;-65
2022/09/06 07:42:46;;;;;;;16.50;12.27;;;19.10;99.90;;;;;;5088607;28;20055;-65
2022/09/06 07:45:11;;;;;;;12.13;10.13;;;19.20;99.90;;;;;;5075710;28;20225;-65
2022/09/06 07:47:37;;;;;;;12.30;9.73;;;19.30;99.90;;;;;;5091087;28;20067;-64
2022/09/06 07:50:03;;;;;;;11.73;8.82;;;19.40;99.90;;;;;;5099886;27;20562;-65
2022/09/06 07:52:29;;;;;;;11.45;8.63;;;19.50;99.90;;;;;;5085600;28;20043;-65
2022/09/06 07:54:55;;;;;;;11.85;8.25;;;19.60;99.90;;;;;;5108407;28;20036;-65
2022/09/06 07:57:22;;;;;;;10.73;9.35;;;19.70;99.90;;;;;;5071778;28;20523;-65
2022/09/06 07:59:48;;;;;;;10.70;9.55;;;19.80;99.90;;;;;;5111497;28;20135;-65
2022/09/06 08:02:14;;;;;;;13.90;9.90;;;19.90;99.90;;;;;;5110613;28;20047;-66
2022/09/06 08:04:41;;;;;;;11.95;10.38;;;20.00;99.90;;;;;;5110802;28;20050;-67
2022/09/06 08:07:07;;;;;;;13.23;9.48;;;20.10;99.90;;;;;;5074449;28;20100;-65
2022/09/06 08:09:33;;;;;;;15.48;10.63;;;20.10;99.90;;;;;;5092765;28;20075;-65
2022/09/06 08:12:05;;;;;;;10.13;8.27;;;20.10;99.90;;;;;;5100859;27;20135;-65
2022/09/06 08:14:33;;;;;;;12.77;9.45;;;20.00;99.90;;;;;;5072279;28;20093;-65
2022/09/06 08:16:59;;;;;;;10.48;8.27;;;20.10;99.90;;;;;;5109481;27;20046;-64
2022/09/06 08:19:24;;;;;;;10.55;8.02;;;20.20;99.90;;;;;;5091279;28;20051;-65
2022/09/06 08:21:54;;;;;;;11.32;8.57;;;20.40;99.90;;;;;;5091899;28;20385;-65
2022/09/06 08:24:19;;;;;;;12.68;8.70;;;20.50;99.90;;;;;;5111397;27;20114;-65
2022/09/06 08:26:45;;;;;;;12.43;9.90;;;20.60;99.90;;;;;;5092078;28;20118;-65
2022/09/06 08:29:11;;;;;;;12.43;9.80;;;20.60;99.90;;;;;;5110622;28;20399;-65
2022/09/06 08:31:40;;;;;;;10.45;8.70;;;20.70;99.90;;;;;;5108991;28;20084;-65
2022/09/06 08:34:06;;;;;;;13.05;9.20;;;20.70;99.90;;;;;;5093193;28;20080;-65
2022/09/06 08:36:33;;;;;;;11.30;8.75;;;20.80;99.90;;;;;;5076632;28;20035;-65
2022/09/06 08:39:00;;;;;;;10.15;9.05;;;20.90;99.90;;;;;;5093313;28;20470;-65
2022/09/06 08:41:45;;;;;;;10.60;9.50;;;21.00;99.90;;;;;;5093949;27;20034;-70
2022/09/06 08:44:17;;;;;;;11.95;10.10;;;21.10;99.90;;;;;;5094814;28;20071;-71
2022/09/06 08:47:03;;;;;;;10.45;7.90;;;21.10;99.90;;;;;;5094633;28;20114;-69
2022/09/06 08:49:31;;;;;;;14.13;9.02;;;21.20;99.90;;;;;;5095163;28;20046;-68
2022/09/06 08:52:18;;;;;;;13.13;9.35;;;21.30;99.90;;;;;;5094871;28;20035;-67
2022/09/06 08:54:51;;;;;;;12.18;9.23;;;21.40;99.90;;;;;;5094887;28;20040;-66
2022/09/06 08:57:29;;;;;;;11.50;10.30;;;21.40;99.90;;;;;;5120915;27;20038;-65
2022/09/06 09:00:01;;;;;;;11.48;9.63;;;21.50;99.90;;;;;;5114855;27;20484;-65
2022/09/06 09:02:30;;;;;;;11.48;10.13;;;21.50;99.90;;;;;;5104089;28;20061;-68
2022/09/06 09:05:03;;;;;;;10.18;8.93;;;21.40;99.90;;;;;;5133675;27;20088;-65
2022/09/06 09:07:39;;;;;;;11.75;9.73;;;21.50;99.90;;;;;;5114294;27;20114;-64
2022/09/06 09:10:20;;;;;;;11.10;9.07;;;21.50;99.90;;;;;;5132985;27;20039;-64
2022/09/06 09:12:47;;;;;;;10.02;7.93;;;21.60;99.90;;;;;;5113095;27;20068;-65
2022/09/06 09:15:16;;;;;;;10.55;7.80;;;21.70;99.90;;;;;;5076352;28;20082;-64
2022/09/06 09:17:42;;;;;;;10.90;8.55;;;21.80;99.90;;;;;;5092574;28;20496;-64
2022/09/06 09:20:09;;;;;;;10.57;8.25;;;21.80;99.90;;;;;;5073762;28;20138;-64
2022/09/06 09:22:35;;;;;;;12.13;8.68;;;21.90;99.90;;;;;;5080824;28;20097;-64
2022/09/06 09:25:02;;;;;;;12.68;8.07;;;21.90;99.90;;;;;;5074423;28;20044;-67
2022/09/06 09:27:28;;;;;;;12.23;8.27;;;21.90;99.90;;;;;;5074282;28;20506;-66
2022/09/06 09:29:54;;;;;;;14.13;10.60;;;22.00;99.90;;;;;;5073427;28;20038;-66
2022/09/06 09:32:39;;;;;;;12.43;11.13;;;22.00;99.90;;;;;;5073843;28;20042;-65
2022/09/06 09:35:22;;;;;;;11.07;8.82;;;22.10;99.90;;;;;;5105985;28;20504;-65
2022/09/06 09:38:33;;;;;;;11.33;8.93;;;22.30;99.90;;;;;;5110359;28;20067;-65
2022/09/06 09:41:02;;;;;;;12.65;9.13;;;22.40;99.90;;;;;;4993566;28;20127;-66
2022/09/06 09:43:59;;;;;;;10.60;7.97;;;22.40;99.90;;;;;;4992657;28;20049;-64
2022/09/06 09:46:24;;;;;;;10.60;7.57;;;22.40;99.90;;;;;;5069239;28;20048;-64
2022/09/06 09:49:05;;;;;;;10.38;8.43;;;22.50;99.90;;;;;;5091687;28;20086;-64
2022/09/06 09:51:33;;;;;;;9.70;8.45;;;22.60;99.90;;;;;;5070085;28;20035;-64
2022/09/06 09:54:02;;;;;;;10.75;8.13;;;22.60;99.90;;;;;;5090358;28;20040;-64
2022/09/06 09:56:52;;;;;;;12.10;7.93;;;22.60;99.90;;;;;;5076846;28;20068;-64
2022/09/06 09:59:22;;;;;;;9.30;8.27;;;22.70;99.90;;;;;;5089578;28;20134;-65
2022/09/06 10:01:50;;;;;;;10.65;8.77;;;22.70;99.90;;;;;;5080564;28;20177;-65
2022/09/06 10:04:20;;;;;;;10.52;8.43;;;22.80;99.90;;;;;;5072645;28;20119;-64
2022/09/06 10:06:46;;;;;;;10.77;8.85;;;22.90;99.90;;;;;;5089036;28;20035;-64
2022/09/06 10:09:17;;;;;;;12.95;7.93;;;23.00;99.90;;;;;;5092481;28;20082;-63
2022/09/06 10:11:57;;;;;;;13.25;9.10;;;23.10;99.90;;;;;;5098320;28;20042;-64
2022/09/06 10:14:32;;;;;;;11.20;8.88;;;23.10;99.90;;;;;;5076257;28;20560;-65
2022/09/06 10:16:59;;;;;;;11.18;9.82;;;23.20;99.90;;;;;;5094421;28;20086;-63
2022/09/06 10:19:31;;;;;;;11.18;9.30;;;23.10;99.90;;;;;;5076118;28;20059;-65
2022/09/06 10:22:25;;;;;;;11.80;10.05;;;23.20;99.90;;;;;;5095082;28;20052;-66
2022/09/06 10:25:19;;;;;;;10.82;8.93;;;23.20;99.90;;;;;;5059791;28;20052;-66
2022/09/06 10:28:21;;;;;;;13.75;8.45;;;23.30;99.90;;;;;;5084594;28;20089;-65
2022/09/06 10:31:01;;;;;;;11.48;8.35;;;23.40;99.90;;;;;;5060713;28;20040;-66
2022/09/06 10:33:55;;;;;;;10.27;8.95;;;23.50;99.90;;;;;;5059565;28;20035;-65
2022/09/06 10:36:38;;;;;;;11.25;9.57;;;23.50;99.90;;;;;;5095368;28;20065;-64
2022/09/06 10:39:19;;;;;;;10.38;8.70;;;23.60;99.90;;;;;;5113718;28;20118;-65
2022/09/06 10:42:06;;;;;;;9.20;7.85;;;23.70;99.90;;;;;;5089951;28;20535;-66
2022/09/06 10:45:01;;;;;;;9.55;7.88;;;23.70;99.90;;;;;;5077298;28;20052;-65
2022/09/06 10:47:53;;;;;;;10.02;7.75;;;23.80;99.90;;;;;;5102268;28;20032;-66
2022/09/06 10:50:19;;;;;;;8.90;7.78;;;23.90;99.50;;;;;;5114723;27;20562;-65
2022/09/06 10:52:46;;;;;;;8.90;6.35;;;24.00;99.00;;;;;;5121516;27;20063;-65
2022/09/06 10:55:16;;;;;;;9.55;5.72;;;24.00;98.20;;;;;;5101683;27;20047;-67
2022/09/06 10:57:51;;;;;;;9.52;6.03;;;24.10;97.90;;;;;;5117620;27;20039;-64
2022/09/06 11:00:17;;;;;;;9.07;6.25;;;24.10;97.50;;;;;;5092433;28;20497;-65
2022/09/06 11:03:00;;;;;;;6.78;5.57;;;24.10;96.90;;;;;;5094840;28;20051;-64
2022/09/06 11:05:35;;;;;;;8.77;6.63;;;24.20;96.20;;;;;;5089222;28;20181;-64
2022/09/06 11:08:11;;;;;;;7.88;5.10;;;24.10;95.90;;;;;;5094156;28;20036;-67
2022/09/06 11:10:42;;;;;;;7.82;5.80;;;24.20;95.90;;;;;;5089940;28;20471;-69
2022/09/06 11:13:10;;;;;;;7.53;5.68;;;24.20;95.80;;;;;;5079588;28;20479;-74
2022/09/06 11:15:45;;;;;;;8.27;5.40;;;24.40;95.70;;;;;;5097835;28;20051;-71
2022/09/06 11:18:19;;;;;;;8.75;5.85;;;24.50;94.90;;;;;;5105260;28;20054;-73
2022/09/06 11:20:52;;;;;;;7.85;5.63;;;24.50;94.70;;;;;;5073324;28;20128;-74
2022/09/06 11:23:35;;;;;;;8.70;5.43;;;24.50;94.70;;;;;;5112261;27;20047;-71
2022/09/06 11:26:03;;;;;;;6.13;4.20;;;24.60;94.70;;;;;;5076826;28;20123;-72
2022/09/06 11:28:46;;;;;;;9.27;5.40;;;24.70;94.30;;;;;;5076124;28;20388;-73
2022/09/06 11:31:22;;;;;;;6.65;5.13;;;24.90;93.20;;;;;;5091747;28;20535;-72
2022/09/06 11:33:48;;;;;;;7.90;5.25;;;25.00;93.30;;;;;;5080964;28;20458;-72
2022/09/06 11:36:37;;;;;;;8.30;5.65;;;25.10;93.10;;;;;;5092259;28;20044;-72
2022/09/06 11:39:06;;;;;;;6.57;5.10;;;25.20;92.80;;;;;;5093074;28;20040;-72
2022/09/06 11:41:35;;;;;;;6.47;5.07;;;25.20;92.60;;;;;;5099558;28;20107;-73
2022/09/06 11:44:02;;;;;;;8.75;5.80;;;25.30;92.00;;;;;;5093215;28;20050;-71
2022/09/06 11:46:33;;;;;;;8.95;5.57;;;25.30;91.20;;;;;;5107803;28;20551;-70
2022/09/06 11:49:00;;;;;;;8.25;5.82;;;25.40;91.00;;;;;;5092332;28;20023;-67
2022/09/06 11:51:38;;;;;;;6.63;4.85;;;25.40;91.30;;;;;;5062276;28;20040;-67
2022/09/06 11:54:36;;;;;;;6.82;4.75;;;25.50;91.00;;;;;;5093358;28;20413;-67
2022/09/06 11:57:16;;;;;;;6.35;3.90;;;25.60;90.50;;;;;;5092758;28;20040;-67
2022/09/06 11:59:45;;;;;;;6.07;4.38;;;25.70;89.60;;;;;;5075482;28;20090;-67
2022/09/06 12:02:35;;;;;;;6.90;3.90;;;25.70;88.30;;;;;;5074913;28;20081;-66
2022/09/06 12:05:02;;;;;;;5.72;4.10;;;25.80;87.10;;;;;;5075569;28;20071;-66
2022/09/06 12:07:30;;;;;;;5.90;4.20;;;25.70;87.90;;;;;;5075460;28;20036;-66
2022/09/06 12:09:59;;;;;;;8.85;6.00;;;25.80;86.70;;;;;;5092579;28;20036;-66
2022/09/06 12:12:48;;;;;;;8.13;6.60;;;25.80;87.50;;;;;;5092803;28;20043;-68
2022/09/06 12:15:52;;;;;;;10.70;7.90;;;25.80;89.40;;;;;;5058146;28;20044;-66
2022/09/06 12:18:45;;;;;;;9.38;8.02;;;25.90;90.40;;;;;;5087663;28;20047;-66
2022/09/06 12:21:51;;;;;;;12.95;8.65;;;25.90;90.40;;;;;;5074822;28;20079;-66
2022/09/06 12:24:34;;;;;;;14.90;8.50;;;26.00;90.70;;;;;;5091720;28;20036;-66
2022/09/06 12:27:21;;;;;;;11.23;7.93;;;26.00;90.50;;;;;;5074817;28;20048;-66
2022/09/06 12:30:03;;;;;;;15.95;9.57;;;26.00;90.50;;;;;;5093036;28;20052;-66
2022/09/06 12:32:48;;;;;;;11.85;9.88;;;26.10;90.50;;;;;;5092514;28;20115;-66
2022/09/06 12:35:22;;;;;;;10.00;7.32;;;26.20;90.40;;;;;;5074655;28;20151;-66
2022/09/06 12:37:58;;;;;;;;;;;26.20;90.20;;;;;;5092596;28;20430;-66
2022/09/06 12:40:30;;;;;;;7.78;4.47;;;26.10;90.00;;;;;;5073936;28;19923;-67
2022/09/06 12:42:56;;;;;;;6.82;4.10;;;26.20;87.80;;;;;;5074631;28;20405;-67
2022/09/06 12:45:23;;;;;;;6.07;4.20;;;26.30;86.60;;;;;;5091483;28;20039;-66
2022/09/06 12:47:50;;;;;;;7.25;3.90;;;26.50;85.20;;;;;;5074956;28;20065;-67
2022/09/06 12:50:24;;;;;;;5.15;3.78;;;26.60;84.50;;;;;;5074756;28;20051;-66
2022/09/06 12:52:52;;;;;;;8.98;3.97;;;26.80;83.30;;;;;;5073702;28;20054;-67
2022/09/06 12:55:20;;;;;;;5.32;3.42;;;27.00;82.10;;;;;;5057351;28;20063;-67
2022/09/06 12:57:48;;;;;;;6.05;3.08;;;27.10;78.60;;;;;;5074693;28;20043;-66
2022/09/06 13:00:14;;;;;;;4.65;3.35;;;27.10;78.50;;;;;;5073552;28;20122;-66
2022/09/06 13:02:57;;;;;;;5.47;3.65;;;27.00;77.90;;;;;;5057978;28;20121;-67